Time;durP1;ratioP1;P1;durP2;ratioP2;P2;SDS_P1;SDS_P2;PMS_P1;PMS_P2;Temp;Humidity;BMP_temperature;BMP_pressure;BME280_temperature;BME280_humidity;BME280_pressure;Samples;Min_cycle;Max_cycle;Signal;HPM_P1;HPM_P2
2022/08/16 00:00:05;;;;;;;2.78;1.38;;;;;;;;;;5040077;28;20044;-71
2022/08/16 00:02:32;;;;;;;1.85;1.60;;;;;;;;;;5042513;28;20040;-72
2022/08/16 00:04:57;;;;;;;1.90;1.20;;;;;;;;;;5041500;28;20107;-72
2022/08/16 00:07:23;;;;;;;2.03;1.20;;;;;;;;;;5042876;28;20419;-72
2022/08/16 00:09:49;;;;;;;1.63;1.38;;;;;;;;;;5041367;28;20105;-72
2022/08/16 00:12:14;;;;;;;2.05;1.50;;;;;;;;;;5042213;28;20052;-72
2022/08/16 00:14:39;;;;;;;2.08;1.30;;;;;;;;;;5039911;28;20083;-71
2022/08/16 00:17:05;;;;;;;1.30;1.20;;;;;;;;;;5042585;28;20155;-74
2022/08/16 00:19:32;;;;;;;2.20;1.40;;;;;;;;;;5041711;28;20132;-73
2022/08/16 00:21:58;;;;;;;3.22;1.33;;;;;;;;;;5041139;28;20450;-73
2022/08/16 00:24:25;;;;;;;3.50;1.50;;;;;;;;;;5024098;28;20044;-72
2022/08/16 00:26:51;;;;;;;1.55;1.42;;;;;;;;;;5041405;28;20045;-72
2022/08/16 00:29:16;;;;;;;1.75;1.15;;;;;;;;;;5040678;28;20578;-73
2022/08/16 00:31:47;;;;;;;1.73;1.42;;;;;;;;;;5039242;28;20044;-72
2022/08/16 00:34:13;;;;;;;1.50;1.40;;;;;;;;;;5039650;28;20302;-72
2022/08/16 00:36:39;;;;;;;3.17;1.20;;;;;;;;;;5039904;28;20102;-71
2022/08/16 00:39:04;;;;;;;3.22;1.45;;;;;;;;;;5040744;28;20045;-72
2022/08/16 00:41:32;;;;;;;1.45;1.35;;;;;;;;;;5039850;28;20495;-72
2022/08/16 00:44:01;;;;;;;2.95;1.30;;;;;;;;;;5023028;28;20049;-72
2022/08/16 00:46:35;;;;;;;1.58;1.35;;;;;;;;;;5041568;28;20110;-73
2022/08/16 00:49:02;;;;;;;2.00;1.27;;;;;;;;;;5038586;28;20049;-72
2022/08/16 00:51:28;;;;;;;2.75;1.17;;;;;;;;;;5040012;28;20237;-72
2022/08/16 00:53:54;;;;;;;1.83;1.63;;;;;;;;;;5022815;28;21046;-73
2022/08/16 00:56:25;;;;;;;1.83;1.42;;;;;;;;;;5023367;28;20049;-71
2022/08/16 00:58:51;;;;;;;2.90;1.60;;;;;;;;;;5039350;28;20060;-72
2022/08/16 01:01:17;;;;;;;2.15;1.63;;;;;;;;;;5039842;28;20052;-72
2022/08/16 01:03:47;;;;;;;1.83;1.48;;;;;;;;;;5039305;28;20040;-72
2022/08/16 01:06:13;;;;;;;1.58;1.40;;;;;;;;;;5056258;28;20037;-72
2022/08/16 01:08:41;;;;;;;1.52;1.25;;;;;;;;;;5023458;28;20045;-72
2022/08/16 01:11:07;;;;;;;3.03;1.80;;;;;;;;;;5022831;28;20488;-73
2022/08/16 01:13:35;;;;;;;2.53;1.83;;;;;;;;;;5039274;28;20106;-72
2022/08/16 01:16:13;;;;;;;1.52;1.30;;;;;;;;;;5039008;28;20065;-72
2022/08/16 01:18:50;;;;;;;4.53;1.60;;;;;;;;;;5039772;28;20049;-72
2022/08/16 01:21:22;;;;;;;5.20;1.60;;;;;;;;;;5038725;28;20052;-73
2022/08/16 01:23:59;;;;;;;3.85;1.55;;;;;;;;;;5022475;28;20061;-73
2022/08/16 01:26:29;;;;;;;1.42;1.30;;;;;;;;;;5039409;28;20045;-73
2022/08/16 01:28:59;;;;;;;2.10;1.88;;;;;;;;;;5039346;28;20162;-72
2022/08/16 01:31:25;;;;;;;2.85;1.65;;;;;;;;;;5021608;28;20072;-72
2022/08/16 01:33:51;;;;;;;1.77;1.67;;;;;;;;;;5038566;28;20041;-72
2022/08/16 01:36:16;;;;;;;2.53;1.50;;;;;;;;;;5022956;28;20106;-72
2022/08/16 01:38:47;;;;;;;2.17;1.40;;;;;;;;;;5039074;28;20048;-73
2022/08/16 01:41:23;;;;;;;2.25;1.17;;;;;;;;;;5038994;28;20837;-73
2022/08/16 01:43:51;;;;;;;1.90;1.63;;;;;;;;;;5021553;28;20087;-73
2022/08/16 01:46:42;;;;;;;1.48;1.38;;;;;;;;;;5035532;28;20044;-73
2022/08/16 01:49:17;;;;;;;3.53;1.70;;;;;;;;;;5015229;28;20045;-73
2022/08/16 01:51:45;;;;;;;2.75;1.67;;;;;;;;;;5038018;28;20056;-74
2022/08/16 01:54:13;;;;;;;1.30;1.25;;;;;;;;;;5038095;28;20068;-74
2022/08/16 01:56:49;;;;;;;2.75;1.40;;;;;;;;;;5024291;28;20037;-74
2022/08/16 01:59:15;;;;;;;3.40;1.75;;;;;;;;;;5039223;28;20041;-74
2022/08/16 02:01:41;;;;;;;1.60;1.42;;;;;;;;;;5039342;28;20279;-74
2022/08/16 02:04:06;;;;;;;2.28;1.55;;;;;;;;;;5038814;28;20491;-73
2022/08/16 02:06:33;;;;;;;3.50;1.60;;;;;;;;;;5038157;28;20056;-73
2022/08/16 02:08:59;;;;;;;1.40;1.30;;;;;;;;;;5039136;28;20186;-74
2022/08/16 02:11:27;;;;;;;3.47;1.77;;;;;;;;;;5038271;28;20045;-73
2022/08/16 02:13:52;;;;;;;1.52;1.42;;;;;;;;;;5037835;28;20052;-73
2022/08/16 02:16:18;;;;;;;1.40;1.30;;;;;;;;;;5038236;28;20380;-73
2022/08/16 02:18:45;;;;;;;1.65;1.55;;;;;;;;;;5040819;28;20065;-72
2022/08/16 02:21:12;;;;;;;2.00;1.50;;;;;;;;;;5025852;28;20053;-74
2022/08/16 02:23:38;;;;;;;3.08;1.50;;;;;;;;;;5040328;28;20076;-74
2022/08/16 02:26:05;;;;;;;1.55;1.40;;;;;;;;;;5021355;28;20055;-73
2022/08/16 02:28:30;;;;;;;1.70;1.60;;;;;;;;;;5038279;28;20060;-73
2022/08/16 02:30:58;;;;;;;2.88;1.60;;;;;;;;;;5038305;28;20045;-73
2022/08/16 02:33:25;;;;;;;1.85;1.50;;;;;;;;;;5037752;28;20053;-74
2022/08/16 02:35:52;;;;;;;1.83;1.73;;;;;;;;;;5037971;28;20064;-71
2022/08/16 02:38:18;;;;;;;1.92;1.73;;;;;;;;;;5037946;28;20041;-73
2022/08/16 02:40:43;;;;;;;2.97;1.70;;;;;;;;;;5038510;28;20859;-73
2022/08/16 02:43:09;;;;;;;2.03;1.50;;;;;;;;;;5022028;28;20041;-73
2022/08/16 02:45:35;;;;;;;3.63;1.65;;;;;;;;;;5022128;28;20045;-73
2022/08/16 02:48:02;;;;;;;1.67;1.55;;;;;;;;;;5037829;28;20406;-73
2022/08/16 02:50:28;;;;;;;3.40;2.03;;;;;;;;;;5037538;28;20041;-73
2022/08/16 02:52:55;;;;;;;1.75;1.65;;;;;;;;;;5039692;28;21097;-73
2022/08/16 02:55:22;;;;;;;2.00;1.80;;;;;;;;;;5038496;28;20049;-73
2022/08/16 02:57:48;;;;;;;1.88;1.77;;;;;;;;;;5037656;28;20073;-73
2022/08/16 03:00:15;;;;;;;3.20;1.88;;;;;;;;;;5020901;28;20182;-73
2022/08/16 03:02:43;;;;;;;3.20;2.00;;;;;;;;;;5038581;28;20080;-74
2022/08/16 03:05:12;;;;;;;3.88;1.70;;;;;;;;;;5037116;28;20052;-73
2022/08/16 03:07:39;;;;;;;1.88;1.77;;;;;;;;;;5038323;28;20140;-73
2022/08/16 03:10:07;;;;;;;2.63;1.88;;;;;;;;;;5020616;28;20037;-74
2022/08/16 03:12:36;;;;;;;2.55;1.83;;;;;;;;;;5022962;28;20586;-74
2022/08/16 03:15:02;;;;;;;4.78;1.90;;;;;;;;;;5041778;28;20047;-73
2022/08/16 03:17:29;;;;;;;2.47;1.90;;;;;;;;;;5041699;28;20051;-73
2022/08/16 03:19:58;;;;;;;2.20;2.00;;;;;;;;;;5024576;28;20127;-73
2022/08/16 03:22:24;;;;;;;2.45;1.80;;;;;;;;;;5041090;28;20136;-73
2022/08/16 03:24:50;;;;;;;4.50;1.90;;;;;;;;;;5041482;28;20041;-73
2022/08/16 03:27:16;;;;;;;4.38;2.20;;;;;;;;;;5041793;28;20415;-73
2022/08/16 03:29:42;;;;;;;3.40;2.05;;;;;;;;;;5040807;28;20068;-73
2022/08/16 03:32:07;;;;;;;3.08;2.00;;;;;;;;;;5040616;28;20186;-72
2022/08/16 03:34:33;;;;;;;2.13;1.80;;;;;;;;;;5041400;28;20057;-73
2022/08/16 03:36:59;;;;;;;3.22;2.20;;;;;;;;;;5041787;28;21001;-73
2022/08/16 03:39:25;;;;;;;6.25;2.10;;;;;;;;;;5041423;28;20047;-73
2022/08/16 03:41:52;;;;;;;4.22;2.15;;;;;;;;;;5040167;28;20048;-74
2022/08/16 03:44:19;;;;;;;2.20;2.10;;;;;;;;;;5040932;28;20833;-72
2022/08/16 03:46:45;;;;;;;4.32;2.70;;;;;;;;;;5040740;28;20072;-73
2022/08/16 03:49:12;;;;;;;2.58;2.10;;;;;;;;;;5040414;28;20071;-72
2022/08/16 03:51:40;;;;;;;2.67;2.03;;;;;;;;;;5041216;28;20064;-73
2022/08/16 03:54:07;;;;;;;2.92;2.63;;;;;;;;;;5040168;28;20051;-72
2022/08/16 03:56:33;;;;;;;3.13;2.03;;;;;;;;;;5026288;28;20407;-73
2022/08/16 03:59:00;;;;;;;2.22;2.03;;;;;;;;;;5024551;28;20056;-72
2022/08/16 04:01:31;;;;;;;2.20;2.00;;;;;;;;;;5040380;28;20399;-72
2022/08/16 04:03:57;;;;;;;2.10;1.90;;;;;;;;;;5023857;28;20045;-74
2022/08/16 04:06:22;;;;;;;3.65;1.92;;;;;;;;;;5023435;28;20931;-73
2022/08/16 04:08:48;;;;;;;3.40;2.20;;;;;;;;;;5041120;28;20045;-73
2022/08/16 04:11:14;;;;;;;3.83;2.10;;;;;;;;;;5040928;28;20053;-74
2022/08/16 04:13:40;;;;;;;2.50;1.80;;;;;;;;;;5040664;28;20045;-74
2022/08/16 04:16:06;;;;;;;2.05;1.88;;;;;;;;;;5039801;28;20159;-74
2022/08/16 04:18:31;;;;;;;5.82;1.80;;;;;;;;;;5023721;28;20052;-74
2022/08/16 04:20:58;;;;;;;2.22;2.03;;;;;;;;;;5040861;28;20522;-74
2022/08/16 04:23:25;;;;;;;2.25;2.00;;;;;;;;;;5023975;28;20484;-73
2022/08/16 04:25:52;;;;;;;3.53;1.92;;;;;;;;;;5039601;28;20499;-72
2022/08/16 04:28:18;;;;;;;2.88;1.90;;;;;;;;;;5039469;28;20098;-75
2022/08/16 04:30:44;;;;;;;4.38;1.58;;;;;;;;;;5040142;28;20045;-73
2022/08/16 04:33:10;;;;;;;2.35;1.70;;;;;;;;;;5040475;28;20120;-75
2022/08/16 04:35:38;;;;;;;2.50;2.10;;;;;;;;;;5024445;28;20049;-75
2022/08/16 04:38:05;;;;;;;2.38;2.17;;;;;;;;;;5039547;28;20041;-73
2022/08/16 04:40:38;;;;;;;7.38;2.50;;;;;;;;;;5025114;28;20040;-74
2022/08/16 04:43:04;;;;;;;2.40;2.20;;;;;;;;;;5040284;28;20132;-74
2022/08/16 04:45:30;;;;;;;2.63;2.42;;;;;;;;;;5040013;28;20131;-75
2022/08/16 04:47:56;;;;;;;5.15;2.38;;;;;;;;;;5039490;28;20053;-75
2022/08/16 04:50:28;;;;;;;5.43;2.50;;;;;;;;;;5039022;28;20053;-74
2022/08/16 04:53:08;;;;;;;3.35;2.13;;;;;;;;;;5025182;28;20415;-74
2022/08/16 04:55:35;;;;;;;2.95;2.28;;;;;;;;;;5039664;28;20060;-73
2022/08/16 04:58:01;;;;;;;3.38;2.22;;;;;;;;;;5039315;28;20585;-75
2022/08/16 05:00:32;;;;;;;4.28;2.35;;;;;;;;;;5038560;28;20045;-73
2022/08/16 05:03:05;;;;;;;3.67;2.25;;;;;;;;;;5039797;28;20044;-75
2022/08/16 05:05:37;;;;;;;3.17;2.40;;;;;;;;;;5023790;28;20059;-73
2022/08/16 05:08:03;;;;;;;3.30;2.45;;;;;;;;;;5022543;28;20052;-73
2022/08/16 05:10:31;;;;;;;2.42;2.22;;;;;;;;;;5039420;28;20048;-75
2022/08/16 05:12:59;;;;;;;3.95;2.30;;;;;;;;;;5022177;28;20049;-75
2022/08/16 05:15:25;;;;;;;4.80;2.38;;;;;;;;;;5039521;28;20076;-75
2022/08/16 05:17:52;;;;;;;4.25;2.10;;;;;;;;;;5035573;28;20068;-75
2022/08/16 05:20:18;;;;;;;2.33;1.90;;;;;;;;;;5038769;28;20441;-75
2022/08/16 05:22:44;;;;;;;2.28;2.08;;;;;;;;;;5021091;28;20051;-75
2022/08/16 05:25:12;;;;;;;2.10;1.90;;;;;;;;;;5023712;28;20166;-74
2022/08/16 05:27:43;;;;;;;3.70;2.00;;;;;;;;;;5038716;28;20403;-71
2022/08/16 05:30:13;;;;;;;2.00;1.80;;;;;;;;;;5022524;28;20052;-73
2022/08/16 05:32:41;;;;;;;2.55;1.70;;;;;;;;;;5039291;28;20044;-72
2022/08/16 05:35:09;;;;;;;4.40;1.90;;;;;;;;;;5038300;28;20059;-73
2022/08/16 05:37:37;;;;;;;2.05;1.52;;;;;;;;;;5039073;28;20135;-71
2022/08/16 05:40:04;;;;;;;2.55;2.00;;;;;;;;;;5038458;28;20051;-73
2022/08/16 05:42:30;;;;;;;4.30;2.30;;;;;;;;;;5022636;28;20049;-73
2022/08/16 05:44:55;;;;;;;3.08;2.17;;;;;;;;;;5040021;28;20407;-70
2022/08/16 05:47:21;;;;;;;2.10;1.98;;;;;;;;;;5038944;28;20178;-72
2022/08/16 05:49:46;;;;;;;2.67;2.40;;;;;;;;;;5039835;28;20141;-73
2022/08/16 05:52:12;;;;;;;2.88;2.20;;;;;;;;;;5038254;28;20135;-72
2022/08/16 05:54:38;;;;;;;4.53;2.10;;;;;;;;;;5020579;28;20057;-70
2022/08/16 05:57:04;;;;;;;5.43;2.70;;;;;;;;;;5036583;28;20045;-73
2022/08/16 05:59:31;;;;;;;4.40;2.35;;;;;;;;;;5037507;28;20527;-73
2022/08/16 06:01:57;;;;;;;2.20;2.10;;;;;;;;;;5036051;28;20977;-73
2022/08/16 06:04:29;;;;;;;6.03;2.70;;;;;;;;;;5037135;28;20041;-73
2022/08/16 06:06:55;;;;;;;3.83;2.58;;;;;;;;;;5036721;28;20078;-73
2022/08/16 06:09:21;;;;;;;9.50;2.88;;;;;;;;;;5038975;28;20053;-73
2022/08/16 06:11:46;;;;;;;2.55;2.35;;;;;;;;;;5038009;28;20475;-72
2022/08/16 06:14:13;;;;;;;4.30;2.30;;;;;;;;;;5038787;28;20566;-71
2022/08/16 06:16:41;;;;;;;9.65;2.42;;;;;;;;;;5038128;28;20495;-73
2022/08/16 06:19:07;;;;;;;2.95;2.40;;;;;;;;;;5037914;28;20045;-72
2022/08/16 06:21:37;;;;;;;5.97;2.20;;;;;;;;;;5023229;28;20041;-76
2022/08/16 06:24:04;;;;;;;4.00;2.50;;;;;;;;;;5021314;28;20047;-77
2022/08/16 06:26:32;;;;;;;5.18;2.17;;;;;;;;;;5021147;28;20040;-72
2022/08/16 06:28:58;;;;;;;5.70;2.00;;;;;;;;;;5036099;28;20084;-73
2022/08/16 06:31:31;;;;;;;11.20;2.33;;;;;;;;;;5036509;28;20836;-72
2022/08/16 06:33:57;;;;;;;2.70;1.85;;;;;;;;;;5036163;28;20055;-73
2022/08/16 06:36:25;;;;;;;2.70;2.00;;;;;;;;;;5036809;28;20902;-72
2022/08/16 06:39:07;;;;;;;5.32;2.00;;;;;;;;;;5036510;28;20048;-73
2022/08/16 06:41:46;;;;;;;2.10;1.90;;;;;;;;;;5023402;28;20045;-72
2022/08/16 06:44:34;;;;;;;2.28;1.83;;;;;;;;;;5025486;28;20045;-72
2022/08/16 06:47:03;;;;;;;3.35;1.80;;;;;;;;;;5038243;28;20049;-73
2022/08/16 06:49:29;;;;;;;3.13;1.75;;;;;;;;;;5042495;28;20510;-73
2022/08/16 06:51:54;;;;;;;5.28;1.75;;;;;;;;;;5040668;28;20051;-73
2022/08/16 06:54:24;;;;;;;2.65;1.70;;;;;;;;;;5042102;28;20083;-72
2022/08/16 06:56:49;;;;;;;2.08;1.52;;;;;;;;;;5042133;28;20064;-71
2022/08/16 06:59:15;;;;;;;3.53;1.60;;;;;;;;;;5042309;28;20380;-73
2022/08/16 07:01:47;;;;;;;2.38;1.30;;;;;;;;;;5040487;28;20052;-71
2022/08/16 07:04:13;;;;;;;2.85;1.55;;;;;;;;;;5042130;28;20143;-72
2022/08/16 07:06:41;;;;;;;4.45;1.33;;;;;;;;;;5041902;28;20045;-73
2022/08/16 07:09:11;;;;;;;1.92;1.10;;;;;;;;;;5037643;28;20048;-72
2022/08/16 07:11:40;;;;;;;1.03;1.03;;;;;;;;;;5041649;28;20125;-72
2022/08/16 07:14:07;;;;;;;2.88;1.33;;;;;;;;;;5023188;28;20271;-73
2022/08/16 07:16:40;;;;;;;1.40;1.30;;;;;;;;;;5026382;28;20131;-73
2022/08/16 07:19:07;;;;;;;2.00;1.40;;;;;;;;;;5041564;28;20099;-73
2022/08/16 07:21:35;;;;;;;2.05;1.20;;;;;;;;;;5040897;28;20037;-74
2022/08/16 07:24:04;;;;;;;3.03;1.00;;;;;;;;;;5039862;28;20060;-73
2022/08/16 07:26:30;;;;;;;1.42;1.15;;;;;;;;;;5041690;28;20045;-74
2022/08/16 07:28:57;;;;;;;1.90;1.27;;;;;;;;;;5041516;28;20045;-73
2022/08/16 07:31:23;;;;;;;1.17;1.10;;;;;;;;;;5040506;28;20515;-74
2022/08/16 07:33:48;;;;;;;2.58;1.30;;;;;;;;;;5040914;28;20519;-74
2022/08/16 07:36:15;;;;;;;1.08;1.08;;;;;;;;;;5040558;28;20037;-74
2022/08/16 07:38:45;;;;;;;1.20;1.10;;;;;;;;;;5025415;28;20045;-73
2022/08/16 07:41:12;;;;;;;1.63;1.05;;;;;;;;;;5040763;28;20048;-72
2022/08/16 07:43:42;;;;;;;1.17;1.10;;;;;;;;;;5024764;28;20067;-77
2022/08/16 07:46:08;;;;;;;1.00;1.00;;;;;;;;;;5040092;28;20041;-75
2022/08/16 07:48:38;;;;;;;2.05;1.33;;;;;;;;;;5024915;28;20041;-75
2022/08/16 07:51:04;;;;;;;2.30;0.95;;;;;;;;;;5040096;28;20098;-73
2022/08/16 07:53:33;;;;;;;3.13;1.10;;;;;;;;;;5041132;28;20045;-74
2022/08/16 07:56:00;;;;;;;1.90;1.00;;;;;;;;;;5040088;28;20052;-73
2022/08/16 07:58:32;;;;;;;1.15;1.02;;;;;;;;;;5040183;28;20071;-72
2022/08/16 08:01:00;;;;;;;1.50;0.90;;;;;;;;;;5040244;28;20063;-75
2022/08/16 08:03:26;;;;;;;3.35;1.02;;;;;;;;;;5024270;28;20406;-76
2022/08/16 08:05:53;;;;;;;1.65;1.02;;;;;;;;;;5040691;28;20072;-74
2022/08/16 08:08:19;;;;;;;1.45;0.98;;;;;;;;;;5039839;28;20260;-75
2022/08/16 08:10:46;;;;;;;1.10;1.00;;;;;;;;;;5040585;28;20056;-73
2022/08/16 08:13:11;;;;;;;1.60;1.10;;;;;;;;;;5040119;28;20041;-75
2022/08/16 08:15:37;;;;;;;1.38;1.10;;;;;;;;;;5040224;28;20037;-75
2022/08/16 08:18:03;;;;;;;1.20;1.10;;;;;;;;;;5040444;28;20064;-73
2022/08/16 08:20:32;;;;;;;4.47;1.27;;;;;;;;;;5025049;28;20052;-73
2022/08/16 08:23:01;;;;;;;1.48;1.38;;;;;;;;;;5040828;28;20072;-72
2022/08/16 08:25:40;;;;;;;1.30;1.20;;;;;;;;;;5039815;28;20091;-74
2022/08/16 08:28:06;;;;;;;1.85;1.20;;;;;;;;;;5039721;28;20083;-73
2022/08/16 08:30:33;;;;;;;1.88;1.10;;;;;;;;;;5039851;28;20068;-74
2022/08/16 08:32:59;;;;;;;1.98;1.10;;;;;;;;;;5041012;28;20072;-73
2022/08/16 08:35:24;;;;;;;1.40;1.30;;;;;;;;;;5023843;28;20083;-75
2022/08/16 08:37:50;;;;;;;1.45;1.35;;;;;;;;;;5039664;28;20058;-76
2022/08/16 08:40:16;;;;;;;2.22;1.30;;;;;;;;;;5038167;28;20045;-73
2022/08/16 08:42:44;;;;;;;2.20;1.60;;;;;;;;;;5042053;28;20045;-72
2022/08/16 08:45:12;;;;;;;1.67;1.30;;;;;;;;;;5040296;28;20450;-74
2022/08/16 08:47:39;;;;;;;1.40;1.30;;;;;;;;;;5040419;28;20044;-71
2022/08/16 08:50:07;;;;;;;1.77;1.35;;;;;;;;;;5039423;28;20445;-73
2022/08/16 08:52:35;;;;;;;1.50;0.98;;;;;;;;;;5039566;28;20072;-73
2022/08/16 08:55:04;;;;;;;2.30;1.40;;;;;;;;;;5040254;28;20132;-75
2022/08/16 08:57:29;;;;;;;1.55;1.45;;;;;;;;;;5039593;28;20055;-75
2022/08/16 09:00:21;;;;;;;1.48;1.20;;;;;;;;;;5053451;28;20439;-73
2022/08/16 09:02:49;;;;;;;1.55;1.45;;;;;;;;;;5038777;28;20053;-73
2022/08/16 09:05:21;;;;;;;2.47;1.40;;;;;;;;;;5039725;28;20044;-73
2022/08/16 09:07:48;;;;;;;4.10;1.60;;;;;;;;;;5038845;28;20078;-74
2022/08/16 09:10:15;;;;;;;3.30;1.70;;;;;;;;;;5022009;28;20299;-75
2022/08/16 09:12:40;;;;;;;3.20;1.20;;;;;;;;;;5040490;28;20041;-71
2022/08/16 09:15:09;;;;;;;2.40;1.48;;;;;;;;;;5039887;28;20107;-70
2022/08/16 09:17:35;;;;;;;6.82;1.52;;;;;;;;;;5039243;28;20045;-70
2022/08/16 09:20:00;;;;;;;3.60;1.25;;;;;;;;;;5038623;28;20044;-73
2022/08/16 09:22:27;;;;;;;1.50;1.35;;;;;;;;;;5040182;28;20051;-73
2022/08/16 09:24:53;;;;;;;2.67;1.58;;;;;;;;;;5038060;28;20443;-73
2022/08/16 09:27:21;;;;;;;2.25;1.40;;;;;;;;;;5039060;28;20029;-71
2022/08/16 09:29:47;;;;;;;2.90;1.38;;;;;;;;;;5038692;28;20574;-71
2022/08/16 09:32:17;;;;;;;2.67;1.23;;;;;;;;;;5038462;28;20051;-71
2022/08/16 09:34:43;;;;;;;4.40;1.50;;;;;;;;;;5039727;28;20972;-70
2022/08/16 09:37:08;;;;;;;1.67;1.38;;;;;;;;;;5039291;28;20040;-71
2022/08/16 09:39:34;;;;;;;2.53;1.52;;;;;;;;;;5040311;28;20040;-72
2022/08/16 09:41:59;;;;;;;2.90;1.15;;;;;;;;;;5039395;28;20106;-69
2022/08/16 09:44:26;;;;;;;3.22;1.50;;;;;;;;;;5040289;28;20518;-71
2022/08/16 09:46:54;;;;;;;2.45;1.55;;;;;;;;;;5038835;28;20076;-71
2022/08/16 09:49:20;;;;;;;2.47;1.40;;;;;;;;;;5039021;28;20543;-70
2022/08/16 09:51:47;;;;;;;1.90;1.40;;;;;;;;;;5039249;28;20132;-71
2022/08/16 09:54:13;;;;;;;2.03;1.73;;;;;;;;;;5039386;28;20140;-72
2022/08/16 09:56:40;;;;;;;4.95;1.55;;;;;;;;;;5039951;28;20124;-71
2022/08/16 09:59:10;;;;;;;3.20;1.60;;;;;;;;;;5038486;28;20048;-72
2022/08/16 10:01:37;;;;;;;2.13;1.45;;;;;;;;;;5039767;28;20055;-71
2022/08/16 10:04:04;;;;;;;9.82;2.10;;;;;;;;;;5038086;28;20037;-71
2022/08/16 10:06:30;;;;;;;3.95;1.70;;;;;;;;;;5039984;28;20048;-71
2022/08/16 10:08:55;;;;;;;6.22;1.60;;;;;;;;;;5039118;28;21191;-69
2022/08/16 10:14:05;;;;;;;1.60;1.38;;;;;;;;;;5039131;28;20056;-71
2022/08/16 10:16:32;;;;;;;1.60;1.30;;;;;;;;;;5037654;28;20053;-70
2022/08/16 10:18:57;;;;;;;1.50;1.40;;;;;;;;;;5039902;28;20110;-72
2022/08/16 10:21:23;;;;;;;2.85;1.60;;;;;;;;;;5039138;28;20048;-72
2022/08/16 10:23:50;;;;;;;1.33;1.23;;;;;;;;;;5042308;28;20110;-70
2022/08/16 10:26:16;;;;;;;2.42;1.80;;;;;;;;;;5043581;28;20049;-70
2022/08/16 10:28:42;;;;;;;3.97;1.20;;;;;;;;;;5043901;28;20049;-70
2022/08/16 10:31:09;;;;;;;1.73;1.63;;;;;;;;;;5042043;28;20411;-71
2022/08/16 10:33:35;;;;;;;2.63;1.30;;;;;;;;;;5042352;28;20044;-70
2022/08/16 10:36:05;;;;;;;2.65;1.40;;;;;;;;;;5042863;28;20049;-71
2022/08/16 10:38:32;;;;;;;6.68;1.50;;;;;;;;;;5043915;28;20045;-72
2022/08/16 10:40:58;;;;;;;1.48;1.38;;;;;;;;;;5043326;28;20075;-71
2022/08/16 10:43:23;;;;;;;2.85;1.75;;;;;;;;;;5043217;28;20056;-73
2022/08/16 10:45:50;;;;;;;1.40;1.30;;;;;;;;;;5043072;28;20152;-73
2022/08/16 10:48:17;;;;;;;3.38;2.13;;;;;;;;;;5043121;28;20045;-73
2022/08/16 10:50:43;;;;;;;3.13;1.60;;;;;;;;;;5024948;28;20052;-72
2022/08/16 10:53:08;;;;;;;1.83;1.20;;;;;;;;;;5042281;28;20079;-72
2022/08/16 10:55:35;;;;;;;5.05;1.50;;;;;;;;;;5042381;28;20067;-71
2022/08/16 10:58:06;;;;;;;1.55;1.42;;;;;;;;;;5041060;28;20051;-73
2022/08/16 11:00:33;;;;;;;2.88;1.70;;;;;;;;;;5043000;28;20102;-72
2022/08/16 11:03:03;;;;;;;4.07;1.70;;;;;;;;;;5042946;28;20091;-71
2022/08/16 11:05:34;;;;;;;1.70;1.38;;;;;;;;;;5043808;28;20102;-72
2022/08/16 11:08:00;;;;;;;5.05;1.67;;;;;;;;;;5041333;28;20040;-71
2022/08/16 11:10:32;;;;;;;2.38;1.42;;;;;;;;;;5043082;28;20041;-72
2022/08/16 11:12:58;;;;;;;6.95;1.73;;;;;;;;;;5046137;28;20049;-73
2022/08/16 11:15:24;;;;;;;3.03;1.50;;;;;;;;;;5046884;28;20059;-72
2022/08/16 11:17:51;;;;;;;2.17;1.50;;;;;;;;;;5046156;28;20049;-74
2022/08/16 11:20:18;;;;;;;3.47;1.52;;;;;;;;;;5043325;28;20611;-72
2022/08/16 11:22:46;;;;;;;3.42;1.40;;;;;;;;;;5043004;28;20048;-71
2022/08/16 11:25:14;;;;;;;2.85;1.30;;;;;;;;;;5041688;28;20569;-70
2022/08/16 11:27:40;;;;;;;4.07;1.40;;;;;;;;;;5042327;28;20056;-74
2022/08/16 11:30:10;;;;;;;2.42;1.48;;;;;;;;;;5041943;28;20049;-72
2022/08/16 11:32:43;;;;;;;1.92;1.60;;;;;;;;;;5044584;28;20052;-74
2022/08/16 11:35:22;;;;;;;3.13;1.75;;;;;;;;;;5047644;28;20503;-77
2022/08/16 11:38:09;;;;;;;1.65;1.55;;;;;;;;;;5040844;28;20901;-77
2022/08/16 11:40:45;;;;;;;1.83;1.60;;;;;;;;;;5041828;28;20656;-75
2022/08/16 11:43:13;;;;;;;1.85;1.50;;;;;;;;;;5046224;28;20041;-74
2022/08/16 11:45:38;;;;;;;5.13;1.20;;;;;;;;;;5042091;28;20114;-74
2022/08/16 11:48:04;;;;;;;2.20;1.65;;;;;;;;;;5040656;28;20139;-74
2022/08/16 11:50:32;;;;;;;2.95;1.40;;;;;;;;;;5042822;28;20055;-74
2022/08/16 11:52:59;;;;;;;2.55;1.38;;;;;;;;;;5041972;28;20051;-71
2022/08/16 11:55:25;;;;;;;4.40;1.52;;;;;;;;;;5042333;28;20151;-74
2022/08/16 11:57:50;;;;;;;2.80;1.50;;;;;;;;;;5041692;28;20123;-74
2022/08/16 12:00:16;;;;;;;3.65;1.73;;;;;;;;;;5042802;28;20048;-73
2022/08/16 12:02:42;;;;;;;2.95;1.50;;;;;;;;;;5044913;28;20086;-75
2022/08/16 12:05:11;;;;;;;1.90;1.70;;;;;;;;;;5041841;28;20088;-74
2022/08/16 12:07:37;;;;;;;1.92;1.67;;;;;;;;;;5040810;28;20135;-74
2022/08/16 12:10:07;;;;;;;3.22;1.70;;;;;;;;;;5040539;28;20219;-75
2022/08/16 12:12:33;;;;;;;1.70;1.60;;;;;;;;;;5040482;28;21068;-74
2022/08/16 12:14:58;;;;;;;3.05;1.55;;;;;;;;;;5041391;28;20041;-74
2022/08/16 12:17:25;;;;;;;3.20;1.60;;;;;;;;;;5041653;28;20107;-74
2022/08/16 12:19:50;;;;;;;4.82;1.52;;;;;;;;;;5023069;28;20689;-74
2022/08/16 12:22:16;;;;;;;2.30;1.50;;;;;;;;;;5039725;28;20132;-74
2022/08/16 12:24:42;;;;;;;3.40;1.38;;;;;;;;;;5041803;28;20072;-73
2022/08/16 12:27:08;;;;;;;4.30;1.63;;;;;;;;;;5041745;28;20049;-74
2022/08/16 12:29:34;;;;;;;1.52;1.42;;;;;;;;;;5040273;28;20064;-74
2022/08/16 12:31:59;;;;;;;3.95;1.73;;;;;;;;;;5039570;28;20459;-74
2022/08/16 12:34:25;;;;;;;1.80;1.45;;;;;;;;;;5040623;28;20060;-74
2022/08/16 12:36:50;;;;;;;2.67;1.70;;;;;;;;;;5040172;28;20049;-73
2022/08/16 12:39:19;;;;;;;2.33;1.60;;;;;;;;;;5041863;28;20079;-74
2022/08/16 12:41:45;;;;;;;5.93;1.80;;;;;;;;;;5040917;28;20440;-74
2022/08/16 12:44:12;;;;;;;2.95;1.50;;;;;;;;;;5040730;28;20163;-73
2022/08/16 12:46:38;;;;;;;2.15;1.52;;;;;;;;;;5039872;28;20053;-74
2022/08/16 12:49:05;;;;;;;3.40;1.30;;;;;;;;;;5041123;28;21001;-74
2022/08/16 12:51:35;;;;;;;3.15;1.77;;;;;;;;;;5038937;28;20041;-73
2022/08/16 12:54:03;;;;;;;3.95;2.65;;;;;;;;;;5039039;28;20053;-74
2022/08/16 12:56:32;;;;;;;1.25;1.15;;;;;;;;;;5041139;28;20056;-73
2022/08/16 12:58:59;;;;;;;1.90;1.40;;;;;;;;;;5039787;28;20175;-73
2022/08/16 13:01:35;;;;;;;1.40;1.30;;;;;;;;;;5041116;28;20048;-75
2022/08/16 13:04:08;;;;;;;1.40;1.30;;;;;;;;;;5040025;28;20080;-76
2022/08/16 13:06:35;;;;;;;2.88;1.42;;;;;;;;;;5041839;28;20045;-77
2022/08/16 13:09:17;;;;;;;2.10;1.50;;;;;;;;;;5040917;28;20045;-75
2022/08/16 13:11:47;;;;;;;4.57;1.30;;;;;;;;;;5040930;28;20053;-73
2022/08/16 13:14:13;;;;;;;1.40;1.30;;;;;;;;;;5041094;28;20918;-76
2022/08/16 13:16:41;;;;;;;3.47;1.55;;;;;;;;;;5040402;28;20063;-77
2022/08/16 13:19:06;;;;;;;1.63;1.52;;;;;;;;;;5043172;28;20538;-76
2022/08/16 13:21:32;;;;;;;2.85;1.30;;;;;;;;;;5041837;28;20132;-73
2022/08/16 13:23:57;;;;;;;3.85;1.23;;;;;;;;;;5042362;28;20068;-74
2022/08/16 13:26:24;;;;;;;1.73;1.50;;;;;;;;;;5040368;28;20056;-73
2022/08/16 13:28:49;;;;;;;1.90;1.42;;;;;;;;;;5042690;28;20041;-74
2022/08/16 13:31:15;;;;;;;3.58;1.75;;;;;;;;;;5043671;28;20051;-73
2022/08/16 13:33:41;;;;;;;1.70;1.50;;;;;;;;;;5043056;28;20442;-72
2022/08/16 13:36:11;;;;;;;1.70;1.45;;;;;;;;;;5039698;28;20068;-73
2022/08/16 13:38:37;;;;;;;3.25;1.45;;;;;;;;;;5040360;28;20403;-73
2022/08/16 13:41:07;;;;;;;2.80;1.73;;;;;;;;;;5040210;28;20045;-73
2022/08/16 13:43:33;;;;;;;5.55;1.80;;;;;;;;;;5041037;28;20056;-74
2022/08/16 13:46:02;;;;;;;4.45;1.55;;;;;;;;;;5040771;28;21161;-74
2022/08/16 13:48:28;;;;;;;2.33;1.50;;;;;;;;;;5039272;28;20103;-74
2022/08/16 13:50:55;;;;;;;1.45;1.33;;;;;;;;;;5043116;28;20060;-73
2022/08/16 13:53:21;;;;;;;3.05;1.60;;;;;;;;;;5041896;28;20683;-73
2022/08/16 13:55:47;;;;;;;2.20;1.50;;;;;;;;;;5025017;28;20856;-73
2022/08/16 13:58:12;;;;;;;2.95;1.80;;;;;;;;;;5041146;28;20127;-74
2022/08/16 14:00:38;;;;;;;2.33;1.70;;;;;;;;;;5039628;28;20782;-73
2022/08/16 14:03:03;;;;;;;2.40;1.63;;;;;;;;;;5040946;28;20045;-73
2022/08/16 14:05:29;;;;;;;4.57;1.63;;;;;;;;;;5023776;28;20069;-73
2022/08/16 14:07:54;;;;;;;4.22;1.52;;;;;;;;;;5042563;28;20488;-73
2022/08/16 14:10:20;;;;;;;4.43;1.60;;;;;;;;;;5040094;28;20044;-75
2022/08/16 14:12:46;;;;;;;9.73;1.88;;;;;;;;;;5041276;28;20515;-73
2022/08/16 14:15:14;;;;;;;3.55;1.60;;;;;;;;;;5040232;28;20049;-73
2022/08/16 14:17:40;;;;;;;2.78;1.77;;;;;;;;;;5039478;28;20045;-74
2022/08/16 14:20:06;;;;;;;1.70;1.58;;;;;;;;;;5039420;28;20060;-72
2022/08/16 14:22:37;;;;;;;1.73;1.33;;;;;;;;;;5040260;28;20651;-72
2022/08/16 14:25:08;;;;;;;1.83;1.42;;;;;;;;;;5038501;28;20507;-73
2022/08/16 14:27:34;;;;;;;3.22;1.60;;;;;;;;;;5039349;28;20045;-73
2022/08/16 14:30:00;;;;;;;2.88;1.50;;;;;;;;;;5039068;28;20834;-71
2022/08/16 14:32:28;;;;;;;3.15;1.50;;;;;;;;;;5038624;28;20049;-72
2022/08/16 14:34:55;;;;;;;6.72;1.35;;;;;;;;;;5039695;28;20083;-73
2022/08/16 14:37:21;;;;;;;4.85;1.50;;;;;;;;;;5021842;28;20040;-73
2022/08/16 14:39:47;;;;;;;1.45;1.35;;;;;;;;;;5039457;28;20037;-72
2022/08/16 14:42:19;;;;;;;1.60;1.50;;;;;;;;;;5038743;28;20503;-71
2022/08/16 14:44:45;;;;;;;2.65;1.77;;;;;;;;;;5037636;28;20084;-72
2022/08/16 14:47:11;;;;;;;1.88;1.55;;;;;;;;;;5038947;28;20073;-73